Time;durP1;ratioP1;P1;durP2;ratioP2;P2;SDS_P1;SDS_P2;PMS_P1;PMS_P2;Temp;Humidity;BMP_temperature;BMP_pressure;BME280_temperature;BME280_humidity;BME280_pressure;Samples;Min_cycle;Max_cycle;Signal;HPM_P1;HPM_P2
2023/04/16 00:00:39;;;;;;;65.50;29.85;;;;;;;6.87;100.00;133303.13;5070272;28;20488;-57
2023/04/16 00:03:05;;;;;;;62.70;31.08;;;;;;;6.86;100.00;132253.25;5071064;28;20510;-57
2023/04/16 00:05:30;;;;;;;61.35;28.52;;;;;;;6.92;100.00;131221.00;5069912;28;20045;-57
2023/04/16 00:07:55;;;;;;;75.10;32.00;;;;;;;6.92;100.00;130174.81;5071189;28;20036;-57
2023/04/16 00:10:21;;;;;;;77.82;33.55;;;;;;;6.90;100.00;129473.25;5069978;28;20510;-57
2023/04/16 00:12:46;;;;;;;66.25;31.85;;;;;;;6.93;100.00;128782.47;5071175;28;20085;-57
2023/04/16 00:15:12;;;;;;;70.88;35.13;;;;;;;6.92;100.00;128083.31;5069768;28;20047;-57
2023/04/16 00:17:37;;;;;;;77.65;32.60;;;;;;;6.93;100.00;127388.47;5071263;28;20032;-57
2023/04/16 00:20:03;;;;;;;68.30;32.38;;;;;;;6.93;100.00;126691.63;5069099;28;20041;-57
2023/04/16 00:22:28;;;;;;;95.85;35.83;;;;;;;6.95;100.00;125650.75;5071343;28;20460;-57
2023/04/16 00:24:54;;;;;;;85.30;36.22;;;;;;;6.97;100.00;124958.28;5069461;28;20045;-57
2023/04/16 00:27:19;;;;;;;80.43;37.20;;;;;;;6.93;100.00;124252.59;5071037;28;20028;-57
2023/04/16 00:29:45;;;;;;;79.35;36.40;;;;;;;6.95;100.00;123561.41;5069727;28;20040;-57
2023/04/16 00:32:10;;;;;;;84.22;35.38;;;;;;;6.98;100.00;123219.34;5070697;28;20379;-57
2023/04/16 00:34:36;;;;;;;78.43;38.85;;;;;;;6.98;100.00;122522.19;5069486;28;20028;-57
2023/04/16 00:37:01;;;;;;;78.63;36.03;;;;;;;7.00;100.00;121830.09;5071018;28;20467;-57
2023/04/16 00:39:26;;;;;;;76.10;36.40;;;;;;;6.98;100.00;121479.13;5069709;28;20041;-57
2023/04/16 00:41:53;;;;;;;73.07;35.45;;;;;;;7.02;100.00;120789.19;5070326;28;20055;-57
2023/04/16 00:44:18;;;;;;;94.32;42.33;;;;;;;7.02;100.00;120094.38;5069459;28;20119;-57
2023/04/16 00:46:44;;;;;;;84.20;41.33;;;;;;;7.05;100.00;119403.56;5071001;28;20387;-57
2023/04/16 00:49:10;;;;;;;84.53;38.83;;;;;;;7.03;100.00;119051.88;5068954;28;20104;-57
2023/04/16 00:51:36;;;;;;;90.35;40.20;;;;;;;7.06;100.00;118362.16;5070968;28;20035;-57
2023/04/16 00:54:02;;;;;;;90.88;38.58;;;;;;;7.07;100.00;118016.38;5069339;28;20021;-57
2023/04/16 00:56:28;;;;;;;89.97;40.17;;;;;;;7.06;100.00;117319.03;5070828;28;20059;-57
2023/04/16 00:58:56;;;;;;;85.63;43.42;;;;;;;7.07;100.00;117320.97;5069102;28;20483;-53
2023/04/16 01:01:21;;;;;;;92.65;42.20;;;;;;;7.08;100.00;116627.63;5069483;28;20116;-57
2023/04/16 01:03:48;;;;;;;88.45;39.22;;;;;;;7.08;100.00;116280.03;5071065;28;20459;-57
2023/04/16 01:06:16;;;;;;;91.03;41.53;;;;;;;7.07;100.00;121148.09;5068725;28;20033;-57
2023/04/16 01:08:41;;;;;;;88.13;41.80;;;;;;;7.10;100.00;115588.72;5070533;28;20028;-57
2023/04/16 01:11:06;;;;;;;104.45;45.05;;;;;;;7.09;100.00;115240.22;5069068;28;20041;-57
2023/04/16 01:13:32;;;;;;;118.65;48.15;;;;;;;7.11;100.00;114548.13;5070186;28;20026;-57
2023/04/16 01:15:58;;;;;;;97.70;45.88;;;;;;;6.97;100.00;114175.41;5068966;28;20129;-57
2023/04/16 01:18:25;;;;;;;111.30;42.92;;;;;;;7.10;100.00;113851.41;5070635;28;20063;-57
2023/04/16 01:20:51;;;;;;;90.70;39.72;;;;;;;7.13;100.00;113509.59;5072398;28;20057;-57
2023/04/16 01:23:20;;;;;;;102.07;45.03;;;;;;;7.13;100.00;113163.19;5074640;28;20044;-56
2023/04/16 01:25:46;;;;;;;96.50;40.65;;;;;;;7.15;100.00;112471.31;5073213;28;20071;-57
2023/04/16 01:28:11;;;;;;;92.65;41.85;;;;;;;7.11;100.00;112116.69;5074036;28;20765;-56
2023/04/16 01:30:36;;;;;;;89.63;39.25;;;;;;;7.11;100.00;111769.47;5071803;28;20124;-57
2023/04/16 01:33:02;;;;;;;96.78;40.42;;;;;;;7.17;100.00;111433.19;5073962;28;20031;-57
2023/04/16 01:35:27;;;;;;;93.93;43.85;;;;;;;7.17;100.00;111086.00;5072753;28;20067;-56
2023/04/16 01:37:53;;;;;;;107.00;45.90;;;;;;;7.21;100.00;111093.25;5074198;28;20490;-57
2023/04/16 01:40:18;;;;;;;96.43;43.72;;;;;;;7.22;100.00;110747.88;5072930;28;20040;-57
2023/04/16 01:42:44;;;;;;;92.13;46.50;;;;;;;7.23;100.00;110402.50;5073754;28;20339;-57
2023/04/16 01:45:09;;;;;;;91.40;45.42;;;;;;;7.23;100.00;110402.50;5072461;28;20407;-57
2023/04/16 01:47:35;;;;;;;98.55;42.05;;;;;;;7.24;100.00;110404.31;5074417;28;20032;-57
2023/04/16 01:50:01;;;;;;;103.30;46.20;;;;;;;7.25;100.00;110406.13;5072250;28;20403;-57
2023/04/16 01:52:26;;;;;;;97.72;44.88;;;;;;;7.20;100.00;110397.06;5074017;28;20107;-57
2023/04/16 01:54:51;;;;;;;114.65;48.17;;;;;;;7.28;100.00;110411.53;5072441;28;20029;-57
2023/04/16 01:57:17;;;;;;;107.88;52.28;;;;;;;7.30;100.00;110415.16;5073899;28;20028;-57
2023/04/16 01:59:42;;;;;;;104.93;47.00;;;;;;;7.30;100.00;110415.16;5072452;28;20039;-57
2023/04/16 02:02:10;;;;;;;104.35;52.08;;;;;;;7.29;100.00;110760.56;5073406;28;20035;-57
2023/04/16 02:04:39;;;;;;;94.88;46.33;;;;;;;7.28;100.00;111105.97;5072090;28;20512;-56
2023/04/16 02:07:05;;;;;;;110.90;50.05;;;;;;;7.31;100.00;111457.81;5073821;28;20028;-57
2023/04/16 02:09:34;;;;;;;92.35;48.72;;;;;;;7.33;100.00;111807.88;5072330;28;20036;-56
2023/04/16 02:12:01;;;;;;;99.03;51.22;;;;;;;7.34;100.00;112157.06;5073337;28;20055;-57
2023/04/16 02:14:26;;;;;;;102.95;54.03;;;;;;;7.34;100.00;112851.88;5072601;28;20031;-57
2023/04/16 02:16:52;;;;;;;89.00;46.50;;;;;;;7.32;100.00;113544.00;5073601;28;20024;-57
2023/04/16 02:19:17;;;;;;;91.20;49.72;;;;;;;7.35;100.00;113897.13;5071838;28;20495;-57
2023/04/16 02:21:42;;;;;;;90.40;47.88;;;;;;;7.33;100.00;114935.16;5073366;28;20048;-57
2023/04/16 02:24:08;;;;;;;92.45;47.30;;;;;;;7.33;100.00;115978.09;5071889;28;20023;-57
2023/04/16 02:26:33;;;;;;;79.53;46.60;;;;;;;7.35;100.00;117373.91;5073249;28;20044;-57
2023/04/16 02:28:58;;;;;;;89.65;49.47;;;;;;;7.36;100.00;118766.41;5071699;28;20024;-57
2023/04/16 02:31:24;;;;;;;77.47;45.05;;;;;;;7.36;100.00;120158.44;5073225;28;20036;-57
2023/04/16 02:33:49;;;;;;;80.45;46.28;;;;;;;7.37;100.00;121901.16;5072909;28;20032;-57
2023/04/16 02:36:15;;;;;;;75.78;43.80;;;;;;;7.36;100.00;123990.03;5071575;28;20041;-57
2023/04/16 02:38:40;;;;;;;86.97;48.33;;;;;;;7.37;100.00;126431.56;5073296;28;20093;-57
2023/04/16 02:41:05;;;;;;;86.70;47.50;;;;;;;7.41;100.00;128880.00;5071471;28;20044;-57
2023/04/16 02:43:31;;;;;;;87.45;47.50;;;;;;;7.39;100.00;132016.38;5073003;28;20434;-56
2023/04/16 02:45:58;;;;;;;96.65;51.28;;;;;;;7.39;100.00;135858.19;5071569;28;20029;-57
2023/04/16 02:48:23;;;;;;;74.65;43.55;;;;;;;7.40;100.00;139356.13;5072809;28;20491;-56
2023/04/16 02:50:48;;;;;;;83.03;47.65;;;;;;;7.40;100.00;143554.88;5071617;28;20037;-57
2023/04/16 02:53:14;;;;;;;81.18;46.53;;;;;;;7.29;100.00;147381.91;5072685;28;20028;-57
2023/04/16 02:55:39;;;;;;;79.47;47.22;;;;;;;7.42;100.00;150917.94;5071151;28;20033;-57
2023/04/16 02:58:05;;;;;;;72.90;43.17;;;;;;;7.39;100.00;154771.09;5072554;28;20032;-56
2023/04/16 03:00:30;;;;;;;80.20;46.05;;;;;;;7.38;100.00;158663.09;5071415;28;20078;-57
2023/04/16 03:02:55;;;;;;;78.18;44.00;;;;;;;7.38;100.00;161068.25;5072492;28;20548;-57
2023/04/16 03:05:21;;;;;;;72.78;43.05;;;;;;;7.36;100.00;162488.50;5071171;28;20044;-57
2023/04/16 03:07:46;;;;;;;75.03;40.85;;;;;;;7.35;100.00;162485.78;5072693;28;20365;-57
2023/04/16 03:10:12;;;;;;;69.50;41.30;;;;;;;7.29;100.00;162471.00;5070745;28;20048;-57
2023/04/16 03:12:38;;;;;;;75.20;41.33;;;;;;;7.35;100.00;162485.78;5072670;28;20021;-57
2023/04/16 03:15:03;;;;;;;65.65;40.80;;;;;;;7.26;100.00;162464.22;5071042;28;20514;-57
2023/04/16 03:17:29;;;;;;;74.20;39.53;;;;;;;7.29;100.00;162472.34;5072113;28;20036;-57
2023/04/16 03:19:54;;;;;;;69.28;39.00;;;;;;;7.28;100.00;162469.63;5070790;28;20574;-57
2023/04/16 03:22:20;;;;;;;67.65;39.00;;;;;;;7.28;100.00;162468.31;5072134;28;20044;-57
2023/04/16 03:24:45;;;;;;;67.70;39.35;;;;;;;7.27;100.00;162466.94;5070529;28;20051;-57
2023/04/16 03:27:11;;;;;;;59.92;37.13;;;;;;;7.28;100.00;162468.31;5071997;28;20021;-57
2023/04/16 03:29:39;;;;;;;74.10;44.92;;;;;;;7.21;100.00;162450.78;5071076;28;20036;-57
2023/04/16 03:32:04;;;;;;;49.53;33.13;;;;;;;7.27;100.00;162465.63;5071842;28;20025;-56
2023/04/16 03:34:30;;;;;;;71.75;40.95;;;;;;;7.27;100.00;162465.63;5070787;28;20381;-57
2023/04/16 03:36:55;;;;;;;60.60;38.47;;;;;;;7.26;100.00;162464.22;5071926;28;20043;-57
2023/04/16 03:39:20;;;;;;;59.70;38.67;;;;;;;7.27;100.00;162466.94;5070355;28;20495;-57
2023/04/16 03:41:46;;;;;;;68.32;40.47;;;;;;;7.28;100.00;162469.63;5071152;28;20376;-57
2023/04/16 03:44:11;;;;;;;64.47;40.10;;;;;;;7.29;100.00;162471.00;5070087;28;20035;-57
2023/04/16 03:46:36;;;;;;;78.80;47.17;;;;;;;7.29;100.00;162472.34;5071880;28;20028;-57
2023/04/16 03:49:02;;;;;;;66.10;41.13;;;;;;;7.28;100.00;162468.31;5069852;28;20023;-57
2023/04/16 03:51:27;;;;;;;65.25;39.22;;;;;;;7.28;100.00;162469.63;5071654;28;20391;-57
2023/04/16 03:53:52;;;;;;;79.15;45.40;;;;;;;7.26;100.00;162462.91;5071594;28;20027;-56
2023/04/16 03:56:18;;;;;;;87.50;45.38;;;;;;;7.26;100.00;162462.91;5069792;28;20035;-57
2023/04/16 03:58:43;;;;;;;72.47;45.97;;;;;;;7.26;100.00;162464.22;5071607;28;20020;-57
2023/04/16 04:01:08;;;;;;;69.93;44.40;;;;;;;7.31;100.00;162476.38;5069871;28;20073;-57
2023/04/16 04:03:34;;;;;;;74.07;41.78;;;;;;;7.27;100.00;162466.94;5071956;28;20023;-57
2023/04/16 04:05:59;;;;;;;70.40;42.45;;;;;;;7.29;100.00;162472.34;5069847;28;20067;-57
2023/04/16 04:08:25;;;;;;;64.38;40.42;;;;;;;7.30;100.00;162473.66;5071574;28;20028;-57
2023/04/16 04:10:50;;;;;;;70.47;46.10;;;;;;;7.30;100.00;162475.03;5069549;28;20048;-57
2023/04/16 04:13:15;;;;;;;75.80;46.45;;;;;;;7.29;100.00;162471.00;5071319;28;20036;-57
2023/04/16 04:15:41;;;;;;;68.25;43.60;;;;;;;7.29;100.00;162472.34;5070043;28;20033;-57
2023/04/16 04:18:06;;;;;;;83.15;45.80;;;;;;;7.34;100.00;162483.09;5070850;28;20442;-57
2023/04/16 04:20:31;;;;;;;74.95;43.35;;;;;;;7.34;100.00;162483.09;5069690;28;20056;-56
2023/04/16 04:22:57;;;;;;;61.13;37.88;;;;;;;7.36;100.00;162488.50;5071253;28;20025;-57
2023/04/16 04:25:22;;;;;;;85.03;42.88;;;;;;;7.36;100.00;162488.50;5069231;28;20044;-57
2023/04/16 04:27:48;;;;;;;66.60;40.42;;;;;;;7.36;100.00;162488.50;5071228;28;20115;-57
2023/04/16 04:30:13;;;;;;;73.15;44.03;;;;;;;7.37;100.00;162491.19;5069623;28;20047;-57
2023/04/16 04:32:38;;;;;;;62.65;44.00;;;;;;;7.37;100.00;162491.19;5070687;28;20042;-57
2023/04/16 04:35:04;;;;;;;61.78;41.75;;;;;;;7.35;100.00;162485.78;5069518;28;20400;-57
2023/04/16 04:37:29;;;;;;;60.30;40.25;;;;;;;7.37;100.00;162492.50;5071107;28;20028;-56
2023/04/16 04:39:55;;;;;;;68.40;43.88;;;;;;;7.37;100.00;162491.19;5068725;28;20399;-57
2023/04/16 04:42:20;;;;;;;68.10;41.80;;;;;;;7.37;100.00;162491.19;5070844;28;20024;-57
2023/04/16 04:44:46;;;;;;;66.90;40.55;;;;;;;7.36;100.00;162489.88;5069707;28;20045;-57
2023/04/16 04:47:12;;;;;;;66.43;42.00;;;;;;;7.34;100.00;162483.09;5070214;28;20037;-57
2023/04/16 04:49:37;;;;;;;57.85;40.08;;;;;;;7.37;100.00;162491.19;5069528;28;20052;-57
2023/04/16 04:52:03;;;;;;;73.55;42.25;;;;;;;7.34;100.00;162484.47;5070739;28;20024;-57
2023/04/16 04:54:30;;;;;;;66.95;42.17;;;;;;;7.38;100.00;162495.22;5067930;28;20552;-57
2023/04/16 04:56:55;;;;;;;64.05;41.13;;;;;;;7.39;100.00;162496.59;5070710;28;20074;-56
2023/04/16 04:59:21;;;;;;;72.25;43.63;;;;;;;7.40;100.00;162499.28;5069331;28;20434;-57
2023/04/16 05:01:47;;;;;;;80.15;43.83;;;;;;;7.40;100.00;162500.63;5070348;28;20032;-57
2023/04/16 05:04:12;;;;;;;66.68;42.92;;;;;;;7.43;100.00;162507.34;5069006;28;20463;-56
2023/04/16 05:06:38;;;;;;;69.70;40.95;;;;;;;7.27;100.00;162466.94;5070894;28;20418;-57
2023/04/16 05:09:03;;;;;;;68.80;44.83;;;;;;;7.41;100.00;162503.31;5068551;28;20055;-56
2023/04/16 05:11:28;;;;;;;67.10;42.53;;;;;;;7.43;100.00;162507.34;5070846;28;20364;-57
2023/04/16 05:13:54;;;;;;;69.03;42.67;;;;;;;7.43;100.00;162508.72;5070671;28;20027;-57
2023/04/16 05:16:19;;;;;;;69.32;43.72;;;;;;;7.44;100.00;162510.06;5068595;28;20518;-57
2023/04/16 05:18:45;;;;;;;58.15;41.00;;;;;;;7.45;100.00;162512.75;5070805;28;20029;-55
2023/04/16 05:21:10;;;;;;;60.60;42.63;;;;;;;7.44;100.00;162510.06;5068318;28;20052;-56
2023/04/16 05:23:35;;;;;;;76.72;49.08;;;;;;;7.49;100.00;162523.50;5070339;28;20102;-56
2023/04/16 05:26:01;;;;;;;61.80;41.05;;;;;;;7.51;100.00;162528.91;5068776;28;20044;-56
2023/04/16 05:28:26;;;;;;;72.45;44.35;;;;;;;7.51;100.00;162528.91;5070415;28;20483;-56
2023/04/16 05:30:51;;;;;;;75.90;45.28;;;;;;;7.53;100.00;162534.31;5068794;28;20114;-56
2023/04/16 05:33:17;;;;;;;65.95;41.25;;;;;;;7.56;100.00;162541.03;5070434;28;20073;-55
2023/04/16 05:35:42;;;;;;;74.03;44.95;;;;;;;7.61;100.00;162555.88;5069065;28;20037;-56
2023/04/16 05:38:07;;;;;;;70.95;46.88;;;;;;;7.62;100.00;162557.19;5069821;28;20028;-56
2023/04/16 05:40:33;;;;;;;70.40;41.15;;;;;;;7.61;100.00;162555.88;5068990;28;20051;-56
2023/04/16 05:42:58;;;;;;;77.53;41.75;;;;;;;7.62;100.00;162558.56;5069935;28;20063;-56
2023/04/16 05:45:23;;;;;;;79.50;44.22;;;;;;;7.65;100.00;162563.94;5068508;28;20044;-56
2023/04/16 05:47:49;;;;;;;68.40;43.70;;;;;;;7.67;100.00;162569.31;5070647;28;20033;-56
2023/04/16 05:50:14;;;;;;;64.45;42.03;;;;;;;7.65;100.00;162565.31;5068555;28;20503;-56
2023/04/16 05:52:39;;;;;;;66.63;44.95;;;;;;;7.70;100.00;162577.44;5070104;28;20496;-56
2023/04/16 05:55:05;;;;;;;77.63;45.95;;;;;;;7.75;100.00;162590.88;5068642;28;20048;-55
2023/04/16 05:57:32;;;;;;;71.78;44.72;;;;;;;7.77;100.00;162597.63;5070223;28;20386;-56
2023/04/16 05:59:57;;;;;;;72.07;43.20;;;;;;;7.83;100.00;162612.44;5068313;28;20124;-56
2023/04/16 06:02:23;;;;;;;76.85;45.38;;;;;;;7.84;100.00;162613.78;5070127;28;20024;-56
2023/04/16 06:04:48;;;;;;;68.15;42.35;;;;;;;7.85;100.00;162617.84;5069002;28;20036;-56
2023/04/16 06:07:14;;;;;;;66.95;44.13;;;;;;;7.92;100.00;162636.72;5073503;28;20391;-56
2023/04/16 06:09:39;;;;;;;68.60;45.75;;;;;;;7.92;100.00;162635.34;5072252;28;20032;-56
2023/04/16 06:12:05;;;;;;;61.40;40.05;;;;;;;7.94;100.00;162642.06;5073396;28;20451;-56
2023/04/16 06:14:30;;;;;;;66.60;40.47;;;;;;;7.93;100.00;162639.38;5072382;28;20037;-56
2023/04/16 06:16:55;;;;;;;58.92;36.97;;;;;;;7.89;100.00;162628.63;5073301;28;20298;-56
2023/04/16 06:19:21;;;;;;;60.97;39.88;;;;;;;7.96;100.00;162644.78;5071976;28;20048;-56
2023/04/16 06:21:46;;;;;;;70.15;40.65;;;;;;;8.04;100.00;162667.66;5073216;28;20403;-56
2023/04/16 06:24:12;;;;;;;77.30;44.28;;;;;;;8.06;100.00;162671.75;5071455;28;20035;-56
2023/04/16 06:26:37;;;;;;;71.95;40.47;;;;;;;8.10;100.00;162683.88;5073429;28;20387;-56
2023/04/16 06:29:02;;;;;;;70.82;39.70;;;;;;;8.10;100.00;162682.50;5071762;28;20103;-56
2023/04/16 06:31:28;;;;;;;66.25;37.03;;;;;;;8.10;100.00;162683.88;5073329;28;20086;-56
2023/04/16 06:33:54;;;;;;;62.67;43.63;;;;;;;8.06;100.00;162671.75;5072917;28;20093;-56
2023/04/16 06:36:19;;;;;;;69.43;41.53;;;;;;;8.04;100.00;162666.34;5071660;28;20434;-56
2023/04/16 06:38:45;;;;;;;78.25;40.05;;;;;;;8.10;100.00;162682.50;5073060;28;20036;-56
2023/04/16 06:41:12;;;;;;;69.55;39.50;;;;;;;8.13;100.00;162690.63;5071411;28;20036;-56
2023/04/16 06:43:38;;;;;;;63.83;39.13;;;;;;;8.14;100.00;162693.31;5073068;28;20117;-56
2023/04/16 06:46:03;;;;;;;61.67;36.85;;;;;;;8.12;100.00;162687.91;5071108;28;20040;-56
2023/04/16 06:48:29;;;;;;;53.33;33.08;;;;;;;8.16;100.00;162698.66;5072930;28;20025;-56
2023/04/16 06:50:55;;;;;;;60.15;39.08;;;;;;;8.20;100.00;162709.47;5071325;28;20040;-56
2023/04/16 06:53:20;;;;;;;54.85;36.40;;;;;;;8.24;100.00;162720.25;5072723;28;20028;-56
2023/04/16 06:55:45;;;;;;;60.03;39.15;;;;;;;8.18;100.00;162704.06;5071492;28;20393;-56
2023/04/16 06:58:10;;;;;;;48.53;34.50;;;;;;;8.16;100.00;162697.34;5072819;28;20043;-56
2023/04/16 07:00:36;;;;;;;50.78;33.00;;;;;;;8.17;100.00;162701.38;5071214;28;20036;-56
2023/04/16 07:03:02;;;;;;;47.42;32.22;;;;;;;8.21;100.00;162710.81;5072520;28;20024;-55
2023/04/16 07:05:27;;;;;;;41.53;31.23;;;;;;;8.29;100.00;162731.03;5071239;28;20040;-56
2023/04/16 07:07:52;;;;;;;45.97;34.53;;;;;;;8.38;100.00;162756.66;5072163;28;20031;-56
2023/04/16 07:10:18;;;;;;;54.50;36.25;;;;;;;8.42;100.00;162766.09;5071424;28;20060;-56
2023/04/16 07:12:43;;;;;;;49.55;33.65;;;;;;;8.46;100.00;162776.84;5072310;28;20187;-55
2023/04/16 07:15:09;;;;;;;44.78;32.95;;;;;;;8.35;100.00;162748.53;5070653;28;20030;-56
2023/04/16 07:17:34;;;;;;;44.58;32.20;;;;;;;8.37;100.00;162752.63;5071630;28;20029;-56
2023/04/16 07:20:00;;;;;;;43.10;32.22;;;;;;;8.35;100.00;162748.53;5070744;28;20048;-56
2023/04/16 07:22:25;;;;;;;47.00;32.60;;;;;;;8.36;100.00;162749.91;5071878;28;20031;-56
2023/04/16 07:24:50;;;;;;;41.90;32.22;;;;;;;8.36;100.00;162751.25;5070955;28;20044;-56
2023/04/16 07:27:16;;;;;;;44.08;33.33;;;;;;;8.33;100.00;162741.81;5072215;28;20020;-56
2023/04/16 07:29:41;;;;;;;49.70;31.58;;;;;;;8.30;100.00;162733.75;5070468;28;20032;-56
2023/04/16 07:32:07;;;;;;;48.90;30.80;;;;;;;8.25;100.00;162722.94;5071927;28;20036;-56
2023/04/16 07:34:32;;;;;;;52.63;34.10;;;;;;;8.31;100.00;162737.78;5070528;28;20047;-56
2023/04/16 07:36:57;;;;;;;39.28;29.52;;;;;;;8.41;100.00;162763.38;5071527;28;20032;-55
2023/04/16 07:39:23;;;;;;;43.15;30.30;;;;;;;8.49;100.00;162785.00;5070846;28;20063;-56
2023/04/16 07:41:48;;;;;;;45.17;32.35;;;;;;;8.46;100.00;162776.84;5071969;28;20388;-56
2023/04/16 07:44:13;;;;;;;39.78;30.30;;;;;;;8.47;100.00;162778.28;5069907;28;20031;-56
2023/04/16 07:46:39;;;;;;;41.67;32.28;;;;;;;8.55;100.00;162801.16;5071790;28;20039;-56
2023/04/16 07:49:04;;;;;;;41.20;29.25;;;;;;;8.62;100.00;162817.34;5070432;28;20051;-56
2023/04/16 07:51:30;;;;;;;43.25;33.50;;;;;;;8.62;100.00;162817.34;5071441;28;20035;-56
2023/04/16 07:53:55;;;;;;;43.05;32.67;;;;;;;8.61;100.00;162814.63;5070184;28;20028;-55
2023/04/16 07:56:20;;;;;;;40.00;29.48;;;;;;;8.69;100.00;162836.22;5071795;28;20036;-56
2023/04/16 07:58:46;;;;;;;38.63;30.45;;;;;;;8.66;100.00;162828.16;5071310;28;20020;-56
2023/04/16 08:01:11;;;;;;;39.63;31.48;;;;;;;8.76;100.00;162855.09;5069942;28;20469;-56
2023/04/16 08:03:37;;;;;;;36.72;31.55;;;;;;;8.76;100.00;162853.75;5071603;28;20051;-56
2023/04/16 08:06:02;;;;;;;41.70;31.25;;;;;;;8.88;100.00;162887.47;5069234;28;20446;-56
2023/04/16 08:08:28;;;;;;;38.28;32.50;;;;;;;9.11;100.00;162945.44;5071547;28;20024;-56
2023/04/16 08:10:54;;;;;;;41.28;33.97;;;;;;;9.06;100.00;162933.28;5069835;28;20048;-55
2023/04/16 08:13:22;;;;;;;40.03;31.58;;;;;;;9.21;100.00;162972.41;5071238;28;20028;-56
2023/04/16 08:15:47;;;;;;;42.03;31.65;;;;;;;9.40;100.00;163020.94;5070127;28;20036;-56
2023/04/16 08:18:14;;;;;;;40.10;32.50;;;;;;;9.46;100.00;163037.13;5071037;28;20082;-56
2023/04/16 08:20:40;;;;;;;47.40;33.80;;;;;;;9.43;100.00;163030.38;5069436;28;20136;-56
2023/04/16 08:23:05;;;;;;;40.67;29.20;;;;;;;9.58;100.00;163068.16;5071039;28;20111;-56
2023/04/16 08:25:31;;;;;;;39.47;29.95;;;;;;;9.56;100.00;163062.78;5069686;28;20063;-56
2023/04/16 08:27:56;;;;;;;38.53;29.35;;;;;;;9.49;100.00;163045.25;5070407;28;20028;-56
2023/04/16 08:30:21;;;;;;;33.83;28.10;;;;;;;9.75;100.00;163112.72;5069651;28;20064;-56
2023/04/16 08:32:47;;;;;;;45.60;31.02;;;;;;;9.80;100.00;163127.50;5071080;28;20029;-56
2023/04/16 08:35:12;;;;;;;35.78;28.75;;;;;;;9.89;100.00;163149.09;5069386;28;20044;-56
2023/04/16 08:37:38;;;;;;;40.88;27.98;;;;;;;9.98;100.00;163174.72;5070714;28;20073;-56
2023/04/16 08:40:03;;;;;;;39.33;31.60;;;;;;;9.84;100.00;163138.34;5069440;28;20043;-56
2023/04/16 08:42:39;;;;;;;35.20;26.13;;;;;;;10.04;100.00;163189.59;5071020;28;20021;-56
2023/04/16 08:45:14;;;;;;;36.05;28.85;;;;;;;10.39;100.00;163280.06;5069135;28;20037;-56
2023/04/16 08:47:40;;;;;;;39.55;27.98;;;;;;;10.58;100.00;163331.31;5071215;28;20032;-56
2023/04/16 08:50:10;;;;;;;37.10;28.13;;;;;;;10.52;100.00;163313.81;5069156;28;20037;-56
2023/04/16 08:52:42;;;;;;;37.25;28.52;;;;;;;10.46;100.00;163300.28;5071260;28;20107;-56
2023/04/16 08:55:15;;;;;;;32.50;27.38;;;;;;;10.61;100.00;163339.44;5069151;28;20036;-56
2023/04/16 08:57:49;;;;;;;33.45;25.80;;;;;;;10.50;100.00;163308.41;5070516;28;20060;-56
2023/04/16 09:00:15;;;;;;;27.17;22.65;;;;;;;10.34;100.00;163267.84;5069266;28;20040;-56
2023/04/16 09:02:41;;;;;;;34.72;27.35;;;;;;;10.18;100.00;163224.66;5070578;28;20468;-56
2023/04/16 09:05:08;;;;;;;37.15;28.35;;;;;;;10.19;100.00;163227.38;5068493;28;20071;-56
2023/04/16 09:07:34;;;;;;;39.38;30.20;;;;;;;10.23;100.00;163238.19;5076735;28;20522;-56
2023/04/16 09:10:00;;;;;;;34.20;27.73;;;;;;;10.18;100.00;163224.66;5081420;28;20045;-56
2023/04/16 09:12:26;;;;;;;31.77;26.65;;;;;;;10.24;100.00;163240.91;5070275;28;20502;-56
2023/04/16 09:14:51;;;;;;;37.53;28.58;;;;;;;10.45;100.00;163296.25;5069259;28;20035;-56
2023/04/16 09:17:17;;;;;;;38.85;25.02;;;;;;;10.48;100.00;163304.38;5090022;28;20367;-56
2023/04/16 09:19:43;;;;;;;37.05;27.25;;;;;;;10.60;100.00;163335.41;5072986;28;20117;-57
2023/04/16 09:22:08;;;;;;;34.55;26.45;;;;;;;10.76;100.00;163377.25;5070230;28;20056;-57
2023/04/16 09:24:34;;;;;;;36.92;27.42;;;;;;;10.97;100.00;163432.63;5067445;28;20044;-58
2023/04/16 09:26:59;;;;;;;31.73;24.75;;;;;;;10.94;100.00;163424.50;5069036;28;20422;-58
2023/04/16 09:29:33;;;;;;;30.10;25.25;;;;;;;11.08;100.00;163462.28;5068668;28;20036;-59
2023/04/16 09:32:04;;;;;;;29.35;24.52;;;;;;;11.14;100.00;163475.78;5070409;28;20017;-58
2023/04/16 09:34:32;;;;;;;30.45;23.25;;;;;;;11.18;100.00;163486.59;5068914;28;20054;-58
2023/04/16 09:37:14;;;;;;;26.05;22.00;;;;;;;11.38;100.00;163540.63;5078488;28;20035;-58
2023/04/16 09:39:44;;;;;;;31.42;20.40;;;;;;;11.40;100.00;163544.66;5078526;28;20033;-59
2023/04/16 09:42:10;;;;;;;36.40;23.98;;;;;;;11.40;100.00;163546.03;5052550;28;20021;-58
2023/04/16 09:44:37;;;;;;;29.45;22.20;;;;;;;11.65;100.00;163610.88;5055579;28;20461;-58
2023/04/16 09:47:07;;;;;;;28.75;20.85;;;;;;;11.87;100.00;163667.59;5084820;28;20028;-58
2023/04/16 09:49:35;;;;;;;27.65;21.70;;;;;;;12.11;100.00;163729.75;5083951;28;20037;-58
2023/04/16 09:52:01;;;;;;;28.13;20.40;;;;;;;12.41;100.00;163808.13;5093646;28;20613;-58
2023/04/16 09:54:26;;;;;;;30.15;20.90;;;;;;;12.30;100.00;163781.13;5086705;28;20456;-58
2023/04/16 09:56:55;;;;;;;32.70;20.58;;;;;;;12.09;100.00;163724.38;5081736;28;20032;-58
2023/04/16 09:59:21;;;;;;;22.23;18.75;;;;;;;12.14;100.00;163737.88;5076393;28;20040;-58
2023/04/16 10:01:52;;;;;;;23.23;18.50;;;;;;;12.28;100.00;163774.38;5074670;28;20031;-58
2023/04/16 10:04:18;;;;;;;29.02;20.83;;;;;;;12.47;100.00;163825.72;5090894;28;20425;-58
2023/04/16 10:06:47;;;;;;;31.05;23.30;;;;;;;12.51;100.00;163836.50;5093575;28;20028;-58
2023/04/16 10:09:12;;;;;;;;;;;;;;;12.68;100.00;163879.75;5089960;28;20028;-58
2023/04/16 10:11:38;;;;;;;25.50;18.50;;;;;;;12.43;100.00;163813.53;5052354;28;19919;-58
2023/04/16 10:14:03;;;;;;;21.45;17.83;;;;;;;12.52;100.00;163837.88;5085582;28;20038;-58
2023/04/16 10:16:29;;;;;;;21.48;17.83;;;;;;;12.43;100.00;163813.53;5092195;28;20027;-58
2023/04/16 10:18:55;;;;;;;32.65;20.05;;;;;;;12.25;100.00;163766.25;5071850;28;20028;-58
2023/04/16 10:21:21;;;;;;;30.55;21.52;;;;;;;12.59;100.00;163856.78;5072437;28;20052;-58
2023/04/16 10:23:48;;;;;;;27.48;21.13;;;;;;;12.77;100.00;163902.75;5073456;28;20027;-58
2023/04/16 10:26:14;;;;;;;21.80;18.73;;;;;;;12.96;100.00;163952.72;5070413;28;20048;-58
2023/04/16 10:28:39;;;;;;;28.40;20.13;;;;;;;13.00;100.00;163963.56;5072548;28;20032;-58
2023/04/16 10:31:07;;;;;;;28.02;19.77;;;;;;;12.87;100.00;163929.78;5070796;28;20566;-58
2023/04/16 10:33:35;;;;;;;31.07;21.10;;;;;;;12.94;100.00;163947.38;5072073;28;20032;-58
2023/04/16 10:36:11;;;;;;;26.70;20.23;;;;;;;12.79;100.00;163908.13;5072120;28;20079;-58
2023/04/16 10:38:43;;;;;;;22.33;18.95;;;;;;;12.91;100.00;163940.63;5072701;28;20024;-58
2023/04/16 10:41:09;;;;;;;34.53;19.77;;;;;;;12.81;100.00;163913.56;5072957;28;20048;-58
2023/04/16 10:43:41;;;;;;;25.92;18.70;;;;;;;13.07;100.00;163981.16;5074798;28;20495;-58
2023/04/16 10:46:37;;;;;;;22.75;18.83;;;;;;;13.42;100.00;164074.47;5085178;28;20048;-58
2023/04/16 10:49:18;;;;;;;23.27;17.02;;;;;;;13.54;100.00;164105.56;5078660;28;20540;-58
2023/04/16 10:51:53;;;;;;;24.27;19.83;;;;;;;13.43;100.00;164077.19;5092569;28;20016;-58
2023/04/16 10:54:25;;;;;;;25.15;18.45;;;;;;;13.16;100.00;164005.47;5091520;28;20039;-58
2023/04/16 10:56:51;;;;;;;25.45;16.67;;;;;;;13.24;100.00;164027.09;5083432;28;20048;-58
2023/04/16 10:59:22;;;;;;;20.67;14.57;;;;;;;13.37;100.00;164060.91;5072494;28;20040;-58
2023/04/16 11:01:50;;;;;;;20.42;15.10;;;;;;;13.93;100.00;164208.38;5086712;28;20028;-58